Time;durP1;ratioP1;P1;durP2;ratioP2;P2;SDS_P1;SDS_P2;PMS_P1;PMS_P2;Temp;Humidity;BMP_temperature;BMP_pressure;BME280_temperature;BME280_humidity;BME280_pressure;Samples;Min_cycle;Max_cycle;Signal;HPM_P1;HPM_P2
2021/12/13 00:01:24;;;;;;;128.90;18.85;;;3.20;99.90;;;;;;5016988;28;20112;-62
2021/12/13 00:04:01;;;;;;;276.20;26.20;;;3.20;99.90;;;;;;4994217;28;20069;-61
2021/12/13 00:06:49;;;;;;;82.00;15.25;;;3.20;99.90;;;;;;5017912;28;20116;-61
2021/12/13 00:09:21;;;;;;;77.45;15.30;;;3.20;99.90;;;;;;5020638;28;20026;-61
2021/12/13 00:11:53;;;;;;;127.70;18.23;;;3.20;99.90;;;;;;5013685;28;20040;-61
2021/12/13 00:14:44;;;;;;;199.02;21.90;;;3.20;99.90;;;;;;5025811;28;20033;-61
2021/12/13 00:17:16;;;;;;;363.58;29.10;;;3.20;99.90;;;;;;5020156;28;20033;-61
2021/12/13 00:19:50;;;;;;;188.50;21.25;;;3.20;99.90;;;;;;5018879;28;20872;-61
2021/12/13 00:22:23;;;;;;;129.15;19.83;;;3.20;99.90;;;;;;5016156;28;20129;-61
2021/12/13 00:24:51;;;;;;;182.02;21.90;;;3.20;99.90;;;;;;5020037;28;20520;-61
2021/12/13 00:27:27;;;;;;;283.90;24.30;;;3.20;99.90;;;;;;5019095;28;20032;-61
2021/12/13 00:30:17;;;;;;;349.02;27.80;;;3.20;99.90;;;;;;5022511;28;20026;-62
2021/12/13 00:33:20;;;;;;;327.00;29.73;;;3.20;99.90;;;;;;5017241;28;20018;-61
2021/12/13 00:35:50;;;;;;;78.50;15.80;;;3.20;99.90;;;;;;5014610;28;20038;-61
2021/12/13 00:38:20;;;;;;;101.32;14.13;;;3.20;99.90;;;;;;5017843;28;20073;-61
2021/12/13 00:41:03;;;;;;;254.75;26.55;;;3.20;99.90;;;;;;5018209;28;20033;-61
2021/12/13 00:43:45;;;;;;;166.98;20.15;;;3.20;99.90;;;;;;5018602;28;20484;-61
2021/12/13 00:46:14;;;;;;;123.80;19.95;;;3.20;99.90;;;;;;5016584;28;20401;-61
2021/12/13 00:48:43;;;;;;;214.50;23.73;;;3.20;99.90;;;;;;5020701;28;20079;-61
2021/12/13 00:51:29;;;;;;;144.82;20.50;;;3.20;99.90;;;;;;5021741;28;20071;-62
2021/12/13 00:53:59;;;;;;;347.48;29.45;;;3.20;99.90;;;;;;5033618;28;20668;-62
2021/12/13 00:56:57;;;;;;;452.02;35.95;;;3.20;99.90;;;;;;5020419;28;20010;-61
2021/12/13 00:59:28;;;;;;;336.17;29.13;;;3.20;99.90;;;;;;5014562;28;20034;-61
2021/12/13 01:02:05;;;;;;;102.07;16.83;;;3.20;99.90;;;;;;5014652;28;20045;-61
2021/12/13 01:05:10;;;;;;;105.20;19.08;;;3.20;99.90;;;;;;5015163;28;20034;-61
2021/12/13 01:08:08;;;;;;;86.47;17.27;;;3.20;99.90;;;;;;5019424;28;21010;-61
2021/12/13 01:11:09;;;;;;;297.98;24.70;;;3.20;99.90;;;;;;5019403;28;20033;-61
2021/12/13 01:13:40;;;;;;;200.90;22.17;;;3.20;99.90;;;;;;5016908;28;20612;-61
2021/12/13 01:16:47;;;;;;;139.30;19.48;;;3.20;99.90;;;;;;5016698;28;20274;-61
2021/12/13 01:22:12;;;;;;;180.52;21.50;;;3.20;99.90;;;;;;5016461;28;20397;-61
2021/12/13 01:27:36;;;;;;;84.28;16.88;;;3.20;99.90;;;;;;5020883;28;20037;-61
2021/12/13 01:30:06;;;;;;;158.88;19.98;;;3.20;99.90;;;;;;5023679;28;20558;-62
2021/12/13 01:32:39;;;;;;;245.33;23.70;;;3.20;99.90;;;;;;5022906;28;20050;-61
2021/12/13 01:35:11;;;;;;;334.73;24.45;;;3.20;99.90;;;;;;5016825;28;20130;-62
2021/12/13 01:37:37;;;;;;;223.25;20.38;;;3.20;99.90;;;;;;5024741;28;20022;-62
2021/12/13 01:40:11;;;;;;;352.30;26.98;;;3.20;99.90;;;;;;5018449;28;20084;-62
2021/12/13 01:42:38;;;;;;;125.90;17.05;;;3.20;99.90;;;;;;5021378;28;20030;-62
2021/12/13 01:45:14;;;;;;;115.00;14.07;;;3.20;99.90;;;;;;5016299;28;20065;-62
2021/12/13 01:47:42;;;;;;;80.78;13.70;;;3.20;99.90;;;;;;5014186;28;20029;-62
2021/12/13 01:50:24;;;;;;;29.42;11.52;;;3.20;99.90;;;;;;5015032;28;20418;-62
2021/12/13 01:52:52;;;;;;;;;;;3.20;99.90;;;;;;5014991;28;20029;-62
2021/12/13 01:55:25;;;;;;;216.77;20.10;;;3.30;99.90;;;;;;5017834;28;20286;-62
2021/12/13 01:58:19;;;;;;;282.63;22.38;;;3.30;99.90;;;;;;5015164;28;20045;-62
2021/12/13 02:03:47;;;;;;;177.07;18.02;;;3.30;99.90;;;;;;5017812;28;20385;-62
2021/12/13 02:06:35;;;;;;;145.93;16.27;;;3.30;99.90;;;;;;5014108;28;20528;-62
2021/12/13 02:09:19;;;;;;;269.00;21.77;;;3.30;99.90;;;;;;5018165;28;20033;-62
2021/12/13 02:11:50;;;;;;;311.65;25.23;;;3.30;99.90;;;;;;5014013;28;20539;-62
2021/12/13 02:14:21;;;;;;;457.65;32.22;;;3.30;99.90;;;;;;5017045;28;20050;-62
2021/12/13 02:17:10;;;;;;;301.05;24.60;;;3.20;99.90;;;;;;5015148;28;20026;-62
2021/12/13 02:20:00;;;;;;;323.88;24.50;;;3.20;99.90;;;;;;5032886;28;20026;-62
2021/12/13 02:22:38;;;;;;;140.35;16.95;;;3.20;99.90;;;;;;5016923;28;20038;-62
2021/12/13 02:25:28;;;;;;;39.85;12.93;;;3.30;99.90;;;;;;5013135;28;20036;-62
2021/12/13 02:28:03;;;;;;;291.30;22.90;;;3.30;99.90;;;;;;5011907;28;20030;-62
2021/12/13 02:30:31;;;;;;;373.02;27.08;;;3.20;99.90;;;;;;5014317;28;20120;-62
2021/12/13 02:32:58;;;;;;;416.15;31.00;;;3.30;99.90;;;;;;5015567;28;20022;-62
2021/12/13 02:35:30;;;;;;;306.90;24.30;;;3.30;99.90;;;;;;5019626;28;20030;-61
2021/12/13 02:37:58;;;;;;;431.80;30.83;;;3.30;99.90;;;;;;5015953;28;20034;-61
2021/12/13 02:40:24;;;;;;;496.15;36.50;;;3.30;99.90;;;;;;5015862;28;20028;-62
2021/12/13 02:42:51;;;;;;;514.00;37.22;;;3.30;99.90;;;;;;5018536;28;20029;-62
2021/12/13 02:45:32;;;;;;;484.60;32.17;;;3.30;99.90;;;;;;5017391;28;20113;-62
2021/12/13 02:48:07;;;;;;;282.52;22.67;;;3.30;99.90;;;;;;5018235;28;20028;-62
2021/12/13 02:50:39;;;;;;;346.13;24.77;;;3.30;99.90;;;;;;5018800;28;20024;-62
2021/12/13 02:53:06;;;;;;;263.35;23.98;;;3.30;99.90;;;;;;5018369;28;20026;-62
2021/12/13 02:55:33;;;;;;;179.13;18.90;;;3.30;99.90;;;;;;5017806;28;20057;-62
2021/12/13 02:58:03;;;;;;;100.03;16.23;;;3.30;99.90;;;;;;5020502;28;20026;-62
2021/12/13 03:00:37;;;;;;;364.13;26.45;;;3.30;99.90;;;;;;5016084;28;20455;-62
2021/12/13 03:03:09;;;;;;;297.73;23.27;;;3.30;99.90;;;;;;5020519;28;20068;-62
2021/12/13 03:05:39;;;;;;;466.20;32.25;;;3.30;99.90;;;;;;5024455;28;20026;-62
2021/12/13 03:08:16;;;;;;;117.93;15.25;;;3.30;99.90;;;;;;5020717;28;20104;-62
2021/12/13 03:10:48;;;;;;;110.65;13.70;;;3.30;99.90;;;;;;5023545;28;20021;-62
2021/12/13 03:13:15;;;;;;;227.43;18.92;;;3.30;99.90;;;;;;5023675;28;20034;-62
2021/12/13 03:15:48;;;;;;;137.15;16.13;;;3.30;99.90;;;;;;5022459;28;20030;-62
2021/12/13 03:18:21;;;;;;;156.80;17.52;;;3.40;99.90;;;;;;5021101;28;20109;-62
2021/12/13 03:21:32;;;;;;;138.15;19.20;;;3.40;99.90;;;;;;5015116;28;20018;-62
2021/12/13 03:24:19;;;;;;;211.98;17.50;;;3.40;99.90;;;;;;5009889;28;20073;-63
2021/12/13 03:27:03;;;;;;;261.90;20.95;;;3.40;99.90;;;;;;5021551;28;20029;-62
2021/12/13 03:29:50;;;;;;;49.45;12.15;;;3.40;99.90;;;;;;5021725;28;20036;-62
2021/12/13 03:32:16;;;;;;;78.32;13.32;;;3.40;99.90;;;;;;5021491;28;20557;-62
2021/12/13 03:35:05;;;;;;;78.13;14.15;;;3.40;99.90;;;;;;5018796;28;20040;-62
2021/12/13 03:37:32;;;;;;;69.40;12.88;;;3.40;99.90;;;;;;5018251;28;20030;-62
2021/12/13 03:40:06;;;;;;;222.48;19.08;;;3.40;99.90;;;;;;5020325;28;20109;-62
2021/12/13 03:42:38;;;;;;;238.35;19.50;;;3.40;99.90;;;;;;5017815;28;20099;-62
2021/12/13 03:45:14;;;;;;;137.77;15.30;;;3.40;99.90;;;;;;5026574;28;20018;-62
2021/12/13 03:47:44;;;;;;;140.52;16.33;;;3.40;99.90;;;;;;5022192;28;20747;-62
2021/12/13 03:50:20;;;;;;;93.32;13.63;;;3.40;99.90;;;;;;5019677;28;20033;-62
2021/12/13 03:52:50;;;;;;;247.63;19.77;;;3.40;99.90;;;;;;5026573;28;20057;-62
2021/12/13 03:55:19;;;;;;;445.23;30.55;;;3.40;99.90;;;;;;5021193;28;20072;-62
2021/12/13 03:57:58;;;;;;;282.73;21.05;;;3.50;99.90;;;;;;5019717;28;20033;-62
2021/12/13 04:00:27;;;;;;;219.32;16.75;;;3.50;99.90;;;;;;5021119;28;20107;-62
2021/12/13 04:02:56;;;;;;;356.65;27.33;;;3.50;99.90;;;;;;5021931;28;20049;-63
2021/12/13 04:05:23;;;;;;;361.75;24.23;;;3.50;99.90;;;;;;5019036;28;20021;-62
2021/12/13 04:07:56;;;;;;;465.30;29.35;;;3.50;99.90;;;;;;5015132;28;20084;-62
2021/12/13 04:10:26;;;;;;;278.98;19.77;;;3.50;99.90;;;;;;5014929;28;20374;-62
2021/12/13 04:12:56;;;;;;;209.68;17.85;;;3.50;99.90;;;;;;5020332;28;20075;-62
2021/12/13 04:16:15;;;;;;;110.82;12.23;;;3.50;99.90;;;;;;5008993;28;20500;-62
2021/12/13 04:21:14;;;;;;;298.40;21.98;;;3.50;99.90;;;;;;5016479;28;20022;-62
2021/12/13 04:23:41;;;;;;;326.90;21.95;;;3.40;99.90;;;;;;5020559;28;20462;-62
2021/12/13 04:26:10;;;;;;;220.40;17.85;;;3.40;99.90;;;;;;5018816;28;20085;-62
2021/12/13 04:28:44;;;;;;;358.85;27.40;;;3.40;99.90;;;;;;5015986;28;20036;-62
2021/12/13 04:31:14;;;;;;;194.23;15.52;;;3.40;99.90;;;;;;5021262;28;20037;-62
2021/12/13 04:33:43;;;;;;;109.65;12.25;;;3.40;99.90;;;;;;5020460;28;20124;-62
2021/12/13 04:36:19;;;;;;;355.88;22.55;;;3.40;99.90;;;;;;5017588;28;20022;-62
2021/12/13 04:38:52;;;;;;;231.07;21.10;;;3.40;99.90;;;;;;5020369;28;20029;-62
2021/12/13 04:41:35;;;;;;;170.70;17.13;;;3.50;99.90;;;;;;5022650;28;20025;-62
2021/12/13 04:44:17;;;;;;;82.97;11.57;;;3.40;99.90;;;;;;5022441;28;20120;-62
2021/12/13 04:46:48;;;;;;;209.60;16.27;;;3.40;99.90;;;;;;5015232;28;20034;-62
2021/12/13 04:49:17;;;;;;;328.15;23.20;;;3.40;99.90;;;;;;5015403;28;20061;-62
2021/12/13 04:51:55;;;;;;;147.07;15.45;;;3.40;99.90;;;;;;5018582;28;20022;-62
2021/12/13 04:54:22;;;;;;;200.30;18.23;;;3.40;99.90;;;;;;5017851;28;20563;-63
2021/12/13 04:56:48;;;;;;;103.68;13.20;;;3.40;99.90;;;;;;5019283;28;20061;-61
2021/12/13 04:59:16;;;;;;;192.60;16.63;;;3.40;99.90;;;;;;5014034;28;20126;-61
2021/12/13 05:01:47;;;;;;;298.52;21.23;;;3.40;99.90;;;;;;5018353;28;20057;-61
2021/12/13 05:04:14;;;;;;;;;;;3.50;99.90;;;;;;5024824;28;20029;-61
2021/12/13 05:06:40;;;;;;;136.60;14.52;;;3.40;99.90;;;;;;5017877;28;20341;-61
2021/12/13 05:09:11;;;;;;;246.30;17.88;;;3.40;99.90;;;;;;5022662;28;20088;-61
2021/12/13 05:12:13;;;;;;;102.95;11.15;;;3.40;99.90;;;;;;5017924;28;20060;-61
2021/12/13 05:14:47;;;;;;;145.20;14.75;;;3.40;99.90;;;;;;5019695;28;20067;-61
2021/12/13 05:17:43;;;;;;;55.22;10.13;;;3.40;99.90;;;;;;5017717;28;20035;-61
2021/12/13 05:20:26;;;;;;;31.85;11.75;;;3.40;99.90;;;;;;5015852;28;20038;-61
2021/12/13 05:23:05;;;;;;;63.55;12.90;;;3.40;99.90;;;;;;5017938;28;20017;-61
2021/12/13 05:25:39;;;;;;;48.25;17.25;;;3.50;99.90;;;;;;5018866;28;20026;-61
2021/12/13 05:28:17;;;;;;;43.03;11.27;;;3.50;99.90;;;;;;5015846;28;20515;-61
2021/12/13 05:31:05;;;;;;;34.75;12.68;;;3.50;99.90;;;;;;5018348;28;20084;-61
2021/12/13 05:33:34;;;;;;;80.95;12.60;;;3.60;99.90;;;;;;5020135;28;20100;-62
2021/12/13 05:36:05;;;;;;;70.85;11.73;;;3.50;99.90;;;;;;5015649;28;20033;-61
2021/12/13 05:38:40;;;;;;;65.32;15.15;;;3.60;99.90;;;;;;5020712;28;20716;-61
2021/12/13 05:41:11;;;;;;;72.72;14.07;;;3.50;99.90;;;;;;5018716;28;20026;-61
2021/12/13 05:43:38;;;;;;;;;;;3.50;99.90;;;;;;5014664;28;20026;-61
2021/12/13 05:46:12;;;;;;;57.25;11.63;;;3.50;99.90;;;;;;5010223;28;19917;-61
2021/12/13 05:48:57;;;;;;;46.08;11.27;;;3.60;99.90;;;;;;5016796;28;20120;-61
2021/12/13 05:51:28;;;;;;;63.50;13.48;;;3.60;99.90;;;;;;5017424;28;20045;-62
2021/12/13 05:54:06;;;;;;;24.55;10.18;;;3.60;99.90;;;;;;5011870;28;20478;-61
2021/12/13 05:56:42;;;;;;;58.22;9.30;;;3.60;99.90;;;;;;5015546;28;20049;-61
2021/12/13 05:59:19;;;;;;;55.00;13.65;;;3.60;99.90;;;;;;5017243;28;20041;-61
2021/12/13 06:02:11;;;;;;;108.65;11.18;;;3.60;99.90;;;;;;5013969;28;20592;-61
2021/12/13 06:04:55;;;;;;;48.55;9.82;;;3.60;99.90;;;;;;5017818;28;20034;-61
2021/12/13 06:07:25;;;;;;;35.00;8.50;;;3.60;99.90;;;;;;5015570;28;20071;-61
2021/12/13 06:10:00;;;;;;;51.90;13.27;;;3.60;99.90;;;;;;5021081;28;20126;-61
2021/12/13 06:12:59;;;;;;;44.78;9.70;;;3.60;99.90;;;;;;5016599;28;20392;-61
2021/12/13 06:15:27;;;;;;;112.22;11.65;;;3.60;99.90;;;;;;4999729;28;20118;-61
2021/12/13 06:18:04;;;;;;;79.65;11.55;;;3.60;99.90;;;;;;5014056;28;20552;-61
2021/12/13 06:20:34;;;;;;;70.07;12.15;;;3.60;99.90;;;;;;5018665;28;20038;-61
2021/12/13 06:23:15;;;;;;;204.93;14.95;;;3.60;99.90;;;;;;5017084;28;20048;-61
2021/12/13 06:25:43;;;;;;;165.57;13.05;;;3.60;99.90;;;;;;5021060;28;20042;-62
2021/12/13 06:28:20;;;;;;;253.57;16.02;;;3.60;99.90;;;;;;5024913;28;20040;-62
2021/12/13 06:30:56;;;;;;;103.60;11.52;;;3.60;99.90;;;;;;5017696;28;20040;-62
2021/12/13 06:33:23;;;;;;;238.20;15.38;;;3.60;99.90;;;;;;5017277;28;20037;-62
2021/12/13 06:35:56;;;;;;;288.98;17.13;;;3.60;99.90;;;;;;5015585;28;20056;-62
2021/12/13 06:38:30;;;;;;;410.88;25.67;;;3.60;99.90;;;;;;5015886;28;20084;-60
2021/12/13 06:41:14;;;;;;;299.77;16.15;;;3.50;99.90;;;;;;5021363;28;20041;-62
2021/12/13 06:43:52;;;;;;;135.23;12.68;;;3.60;99.90;;;;;;5017946;28;20052;-62
2021/12/13 06:46:41;;;;;;;150.60;13.50;;;3.50;99.90;;;;;;5015568;28;20037;-62
2021/12/13 06:49:24;;;;;;;139.13;13.77;;;3.60;99.90;;;;;;5016547;28;20034;-62
2021/12/13 06:51:55;;;;;;;33.40;10.13;;;3.60;99.90;;;;;;5017305;28;20033;-60
2021/12/13 06:54:24;;;;;;;;;;;3.60;99.90;;;;;;5018513;28;20030;-60
2021/12/13 06:57:19;;;;;;;41.20;8.75;;;3.60;99.90;;;;;;5016832;28;19906;-62
2021/12/13 06:59:53;;;;;;;59.70;9.52;;;3.60;99.90;;;;;;5013864;28;20030;-62
2021/12/13 07:02:35;;;;;;;33.80;9.57;;;3.60;99.90;;;;;;5017841;28;20137;-62
2021/12/13 07:05:30;;;;;;;48.25;10.20;;;3.60;99.90;;;;;;5016661;28;20029;-62
2021/12/13 07:08:33;;;;;;;33.78;10.05;;;3.60;99.90;;;;;;5010515;28;20026;-62
2021/12/13 07:11:08;;;;;;;28.83;9.18;;;3.60;99.90;;;;;;5008850;28;20018;-60
2021/12/13 07:13:42;;;;;;;28.77;9.07;;;3.70;99.90;;;;;;5011211;28;20026;-60
2021/12/13 07:16:20;;;;;;;50.15;11.32;;;3.70;99.90;;;;;;5021308;28;20030;-60
2021/12/13 07:18:54;;;;;;;44.35;9.73;;;3.70;99.90;;;;;;5016207;28;20113;-60
2021/12/13 07:21:28;;;;;;;47.88;15.43;;;3.70;99.90;;;;;;5015842;28;20087;-62
2021/12/13 07:24:13;;;;;;;33.63;10.00;;;3.70;99.90;;;;;;5016642;28;20026;-60
2021/12/13 07:26:41;;;;;;;24.98;9.50;;;3.80;99.90;;;;;;5017908;28;20112;-64
2021/12/13 07:29:20;;;;;;;31.13;9.32;;;3.80;99.90;;;;;;5014373;28;20560;-63
2021/12/13 07:32:02;;;;;;;31.17;11.27;;;3.80;99.90;;;;;;5016363;28;20409;-62
2021/12/13 07:34:28;;;;;;;38.20;10.50;;;3.90;99.90;;;;;;5019271;28;20061;-62
2021/12/13 07:37:01;;;;;;;35.20;12.30;;;3.90;99.90;;;;;;5015397;28;20032;-62
2021/12/13 07:39:31;;;;;;;46.03;11.95;;;3.90;99.90;;;;;;5017096;28;20053;-62
2021/12/13 07:42:08;;;;;;;34.78;11.68;;;3.90;99.90;;;;;;5019404;28;20030;-62
2021/12/13 07:44:42;;;;;;;33.33;10.20;;;3.90;99.90;;;;;;5021159;28;20456;-62
2021/12/13 07:47:11;;;;;;;45.45;11.45;;;3.90;99.90;;;;;;5015028;28;20034;-62
2021/12/13 07:49:46;;;;;;;40.85;14.05;;;3.90;99.90;;;;;;5018783;28;20022;-60
2021/12/13 07:52:33;;;;;;;50.22;15.02;;;3.90;99.90;;;;;;5019366;28;20034;-60
2021/12/13 07:55:22;;;;;;;58.55;21.05;;;3.90;99.90;;;;;;5026601;28;20059;-60
2021/12/13 07:57:49;;;;;;;58.88;13.27;;;3.90;99.90;;;;;;5015418;28;20452;-60
2021/12/13 08:00:23;;;;;;;27.77;10.40;;;3.90;99.90;;;;;;5018360;28;20108;-60
2021/12/13 08:03:02;;;;;;;24.77;9.25;;;3.90;99.90;;;;;;5017542;28;20021;-59
2021/12/13 08:05:38;;;;;;;36.88;12.57;;;4.00;99.90;;;;;;5017274;28;20041;-60
2021/12/13 08:08:06;;;;;;;41.10;12.13;;;4.00;99.90;;;;;;5021176;28;20025;-60
2021/12/13 08:10:36;;;;;;;30.38;11.85;;;4.10;99.90;;;;;;5021247;28;20108;-62
2021/12/13 08:13:13;;;;;;;39.08;12.60;;;4.10;99.90;;;;;;5022561;28;20058;-62
2021/12/13 08:15:52;;;;;;;39.13;13.13;;;4.10;99.90;;;;;;5019859;28;20034;-62
2021/12/13 08:18:30;;;;;;;33.22;13.38;;;4.20;99.90;;;;;;5018445;28;20037;-62
2021/12/13 08:21:00;;;;;;;30.50;13.50;;;4.20;99.90;;;;;;5016489;28;20053;-60
2021/12/13 08:23:35;;;;;;;34.80;15.52;;;4.20;99.90;;;;;;5018057;28;20033;-60
2021/12/13 08:26:05;;;;;;;30.52;12.13;;;4.20;99.90;;;;;;5021170;28;20514;-60
2021/12/13 08:28:43;;;;;;;24.17;11.90;;;4.20;99.90;;;;;;5017753;28;20120;-62
2021/12/13 08:31:20;;;;;;;40.22;11.93;;;4.20;99.90;;;;;;5019248;28;20034;-62
2021/12/13 08:33:51;;;;;;;32.85;14.95;;;4.30;99.90;;;;;;5019116;28;20034;-62
2021/12/13 08:36:18;;;;;;;;;;;4.30;99.90;;;;;;5018289;28;20049;-62
2021/12/13 08:39:01;;;;;;;29.48;12.82;;;4.30;99.90;;;;;;5017846;28;19941;-62
2021/12/13 08:41:34;;;;;;;30.52;13.60;;;4.40;99.90;;;;;;5025140;28;20103;-62
2021/12/13 08:44:13;;;;;;;32.97;12.82;;;4.40;99.90;;;;;;5020204;28;20033;-62
2021/12/13 08:46:45;;;;;;;45.95;14.45;;;4.40;99.90;;;;;;5016990;28;20037;-62
2021/12/13 08:49:16;;;;;;;28.52;12.77;;;4.40;99.90;;;;;;5016284;28;20073;-62
2021/12/13 08:52:08;;;;;;;;;;;4.40;99.90;;;;;;5017906;28;20036;-62
2021/12/13 08:54:36;;;;;;;28.42;11.70;;;4.40;99.90;;;;;;5018976;28;19913;-62
2021/12/13 08:57:03;;;;;;;35.05;13.43;;;4.50;99.90;;;;;;5019582;28;20022;-62
2021/12/13 08:59:29;;;;;;;25.27;11.07;;;4.50;99.90;;;;;;5017309;28;20030;-62
2021/12/13 09:02:07;;;;;;;21.73;11.25;;;4.50;99.90;;;;;;5019848;28;20049;-62
2021/12/13 09:04:39;;;;;;;30.52;13.70;;;4.60;99.90;;;;;;5019202;28;20022;-62
2021/12/13 09:07:14;;;;;;;32.28;15.02;;;4.70;99.90;;;;;;5017419;28;20394;-62
2021/12/13 09:09:47;;;;;;;27.77;15.25;;;4.70;99.90;;;;;;5021873;28;20490;-62
2021/12/13 09:12:15;;;;;;;19.92;11.45;;;4.80;99.90;;;;;;5024575;28;20398;-66
2021/12/13 09:14:51;;;;;;;18.05;11.25;;;4.80;99.90;;;;;;5015529;28;20026;-62
2021/12/13 09:17:47;;;;;;;15.95;11.10;;;4.90;99.90;;;;;;5019281;28;20026;-62
2021/12/13 09:20:16;;;;;;;20.73;11.48;;;4.90;99.90;;;;;;5012277;28;20030;-62
2021/12/13 09:22:48;;;;;;;15.77;9.50;;;5.00;99.90;;;;;;5014831;28;20381;-60
2021/12/13 09:25:25;;;;;;;19.67;10.57;;;5.10;99.90;;;;;;5017766;28;20485;-62
2021/12/13 09:28:13;;;;;;;24.55;11.45;;;5.10;99.90;;;;;;5018656;28;20033;-60
2021/12/13 09:30:58;;;;;;;31.40;11.35;;;5.20;99.90;;;;;;5017867;28;20022;-62
2021/12/13 09:33:34;;;;;;;26.27;12.25;;;5.30;99.90;;;;;;5013959;28;20464;-62
2021/12/13 09:36:09;;;;;;;17.73;10.88;;;5.30;99.90;;;;;;5020541;28;20025;-60
2021/12/13 09:38:41;;;;;;;15.77;8.30;;;5.40;99.90;;;;;;5016060;28;20513;-62
2021/12/13 09:41:18;;;;;;;12.88;9.52;;;5.40;99.90;;;;;;5019532;28;20040;-62
2021/12/13 09:44:03;;;;;;;17.55;9.98;;;5.40;99.90;;;;;;5020694;28;20022;-60
2021/12/13 09:46:37;;;;;;;14.32;9.60;;;5.40;99.90;;;;;;5017734;28;20052;-62
2021/12/13 09:49:13;;;;;;;12.35;8.45;;;5.40;99.90;;;;;;5016697;28;20061;-60
2021/12/13 09:51:46;;;;;;;12.88;9.30;;;5.40;99.90;;;;;;5016694;28;20018;-60
2021/12/13 09:54:15;;;;;;;12.43;8.35;;;5.50;99.90;;;;;;5018108;28;20034;-62
2021/12/13 09:56:49;;;;;;;12.80;7.88;;;5.60;99.90;;;;;;5015265;28;20032;-60
2021/12/13 09:59:40;;;;;;;10.60;7.85;;;5.60;99.90;;;;;;5016540;28;20116;-60
2021/12/13 10:02:19;;;;;;;11.25;8.32;;;5.70;99.90;;;;;;5016112;28;20029;-60
2021/12/13 10:04:46;;;;;;;10.38;8.70;;;5.70;99.90;;;;;;5016564;28;20049;-60
2021/12/13 10:07:32;;;;;;;11.10;9.20;;;5.80;99.90;;;;;;5016484;28;20034;-60
2021/12/13 10:10:14;;;;;;;9.65;8.02;;;5.80;99.90;;;;;;5011577;28;20567;-60
2021/12/13 10:12:49;;;;;;;13.00;8.30;;;5.80;99.90;;;;;;5011803;28;20045;-60
2021/12/13 10:15:25;;;;;;;14.60;8.57;;;5.70;99.90;;;;;;5016743;28;20052;-60
2021/12/13 10:17:57;;;;;;;15.27;9.50;;;5.70;99.90;;;;;;5019105;28;20033;-62
2021/12/13 10:20:51;;;;;;;11.25;8.20;;;5.70;99.90;;;;;;5017014;28;20527;-62
2021/12/13 10:23:21;;;;;;;13.20;9.82;;;5.70;99.90;;;;;;5020111;28;20042;-62
2021/12/13 10:25:50;;;;;;;9.23;7.80;;;5.70;99.90;;;;;;5013521;28;20117;-62
2021/12/13 10:28:21;;;;;;;10.23;8.10;;;5.70;99.90;;;;;;5021117;28;20038;-62
2021/12/13 10:31:03;;;;;;;12.80;9.07;;;5.70;99.90;;;;;;5018045;28;20099;-62
2021/12/13 10:33:30;;;;;;;7.85;6.75;;;5.70;99.90;;;;;;5019869;28;20403;-60
2021/12/13 10:36:02;;;;;;;8.38;6.80;;;5.70;99.90;;;;;;5017282;28;20017;-62
2021/12/13 10:38:29;;;;;;;;;;;5.70;99.90;;;;;;5016500;28;20565;-62
2021/12/13 10:41:03;;;;;;;8.70;6.03;;;5.80;99.90;;;;;;5022966;28;19918;-62
2021/12/13 10:43:41;;;;;;;9.23;6.95;;;5.90;99.90;;;;;;5017381;28;20030;-62
2021/12/13 10:46:11;;;;;;;9.10;7.13;;;5.90;99.90;;;;;;5018495;28;20038;-62
2021/12/13 10:48:45;;;;;;;11.02;7.70;;;6.00;99.90;;;;;;5015530;28;20045;-62
2021/12/13 10:51:13;;;;;;;10.80;7.95;;;6.10;99.90;;;;;;5015730;28;20924;-62
2021/12/13 10:53:41;;;;;;;10.65;7.53;;;6.10;99.90;;;;;;5023528;28;20784;-62
2021/12/13 10:56:16;;;;;;;12.85;8.00;;;6.10;99.90;;;;;;5013544;28;20029;-62
2021/12/13 10:58:46;;;;;;;10.57;7.03;;;6.10;99.90;;;;;;5019469;28;20026;-62
2021/12/13 11:01:19;;;;;;;8.52;6.32;;;6.00;99.90;;;;;;5016966;28;20053;-62
2021/12/13 11:03:47;;;;;;;7.50;5.90;;;6.10;99.90;;;;;;5016794;28;20022;-62
2021/12/13 11:06:14;;;;;;;9.32;6.97;;;6.10;99.90;;;;;;5014427;28;20036;-62
2021/12/13 11:08:43;;;;;;;9.60;6.53;;;6.10;99.90;;;;;;5017924;28;20049;-62
2021/12/13 11:11:26;;;;;;;6.47;5.65;;;6.20;99.90;;;;;;5018209;28;20042;-62
2021/12/13 11:13:56;;;;;;;6.43;4.78;;;6.30;99.90;;;;;;5012431;28;20125;-60
2021/12/13 11:16:31;;;;;;;6.93;5.28;;;6.40;99.90;;;;;;5013155;28;20053;-62
2021/12/13 11:18:59;;;;;;;6.68;5.43;;;6.40;99.90;;;;;;5016898;28;20022;-62
2021/12/13 11:21:32;;;;;;;6.85;5.47;;;6.60;99.90;;;;;;5015600;28;20030;-62
2021/12/13 11:24:02;;;;;;;6.80;5.82;;;6.70;99.90;;;;;;5020388;28;20188;-62
2021/12/13 11:26:31;;;;;;;5.73;5.07;;;6.70;99.90;;;;;;5019341;28;20043;-62
2021/12/13 11:28:58;;;;;;;5.53;4.80;;;6.70;99.90;;;;;;5017872;28;20272;-62
2021/12/13 11:31:30;;;;;;;5.65;4.50;;;6.70;99.90;;;;;;5028085;28;20125;-62
2021/12/13 11:34:03;;;;;;;8.70;5.70;;;6.60;99.90;;;;;;5021004;28;20659;-62
2021/12/13 11:37:20;;;;;;;8.10;5.65;;;6.60;99.90;;;;;;5021544;28;20029;-62
2021/12/13 11:40:15;;;;;;;5.00;4.28;;;6.50;99.90;;;;;;5004377;28;20026;-62
2021/12/13 11:43:06;;;;;;;7.30;5.60;;;6.50;99.90;;;;;;5019355;28;20026;-62
2021/12/13 11:46:05;;;;;;;7.25;6.13;;;6.50;99.90;;;;;;5020824;28;20496;-62
2021/12/13 11:49:05;;;;;;;6.70;5.10;;;6.40;99.90;;;;;;5014195;28;20030;-62
2021/12/13 11:52:12;;;;;;;6.80;4.93;;;6.50;99.90;;;;;;5019668;28;20032;-62
2021/12/13 11:54:59;;;;;;;6.05;5.28;;;6.60;99.90;;;;;;5016768;28;20084;-62
2021/12/13 11:58:02;;;;;;;5.93;5.32;;;6.70;99.90;;;;;;5013905;28;20105;-64
2021/12/13 12:00:46;;;;;;;6.13;4.88;;;6.80;99.90;;;;;;5019602;28;20054;-64
2021/12/13 12:03:36;;;;;;;5.70;4.75;;;6.80;99.90;;;;;;5018844;28;20045;-64
2021/12/13 12:06:27;;;;;;;8.00;6.35;;;6.80;99.90;;;;;;5018144;28;20029;-65
2021/12/13 12:09:10;;;;;;;8.05;6.13;;;6.90;99.90;;;;;;5019924;28;20017;-63
2021/12/13 12:12:16;;;;;;;6.15;5.55;;;7.00;99.90;;;;;;5014216;28;20132;-63
2021/12/13 12:14:42;;;;;;;8.40;6.97;;;7.00;99.90;;;;;;5016459;28;20632;-63
2021/12/13 12:17:08;;;;;;;8.45;6.95;;;7.10;99.90;;;;;;5022784;28;20122;-63
2021/12/13 12:19:40;;;;;;;8.05;5.90;;;7.10;99.90;;;;;;5016567;28;20049;-63
2021/12/13 12:22:13;;;;;;;9.15;7.13;;;7.00;99.90;;;;;;5019417;28;20038;-63
2021/12/13 12:24:58;;;;;;;10.20;7.60;;;7.10;99.90;;;;;;5021479;28;20386;-64
2021/12/13 12:27:31;;;;;;;14.25;11.45;;;7.10;99.90;;;;;;5026389;28;20080;-64
2021/12/13 12:30:15;;;;;;;26.02;14.27;;;7.10;99.90;;;;;;5018591;28;20372;-64
2021/12/13 12:32:47;;;;;;;12.02;10.15;;;7.00;99.90;;;;;;5018568;28;20018;-64
2021/12/13 12:35:19;;;;;;;12.27;10.73;;;7.00;99.90;;;;;;5015209;28;20173;-65
2021/12/13 12:38:07;;;;;;;13.05;10.80;;;7.00;99.90;;;;;;5019088;28;20049;-64
2021/12/13 12:40:47;;;;;;;11.13;9.80;;;7.10;99.90;;;;;;5019538;28;20025;-63
2021/12/13 12:43:20;;;;;;;10.75;9.65;;;7.10;99.90;;;;;;5024588;28;20037;-65
2021/12/13 12:45:58;;;;;;;13.05;10.35;;;7.10;99.90;;;;;;5016656;28;20080;-64
2021/12/13 12:48:51;;;;;;;15.00;10.40;;;7.20;99.90;;;;;;5021397;28;20030;-64
2021/12/13 12:51:32;;;;;;;12.85;9.80;;;7.20;99.90;;;;;;5015476;28;20105;-63
2021/12/13 12:54:13;;;;;;;16.05;10.85;;;7.30;99.90;;;;;;5025783;28;20026;-65
2021/12/13 12:56:41;;;;;;;15.50;10.45;;;7.20;99.90;;;;;;5020111;28;20014;-64
2021/12/13 12:59:18;;;;;;;15.82;9.93;;;7.10;99.90;;;;;;5019192;28;20029;-63
2021/12/13 13:01:49;;;;;;;14.60;9.68;;;7.10;99.90;;;;;;5021031;28;20054;-63
2021/12/13 13:04:17;;;;;;;;;;;7.00;99.90;;;;;;5016892;28;20033;-64
2021/12/13 13:07:03;;;;;;;18.63;12.05;;;7.00;99.90;;;;;;5016127;28;19995;-65
2021/12/13 13:09:51;;;;;;;17.60;12.40;;;7.00;99.90;;;;;;5024903;28;20397;-64
2021/12/13 13:12:29;;;;;;;16.38;10.82;;;6.90;99.90;;;;;;5012487;28;20087;-64
2021/12/13 13:15:05;;;;;;;16.45;11.63;;;6.90;99.90;;;;;;5024219;28;20034;-65
2021/12/13 13:17:38;;;;;;;14.07;9.52;;;6.90;99.90;;;;;;5014494;28;20037;-64
2021/12/13 13:20:10;;;;;;;15.75;10.52;;;6.90;99.90;;;;;;5018159;28;20026;-64
2021/12/13 13:22:39;;;;;;;17.08;10.95;;;6.80;99.90;;;;;;5018246;28;20025;-63
2021/12/13 13:25:17;;;;;;;11.95;10.63;;;6.80;99.90;;;;;;5021720;28;20083;-65
2021/12/13 13:27:43;;;;;;;12.55;10.45;;;6.90;99.90;;;;;;5019200;28;20132;-63
2021/12/13 13:30:23;;;;;;;13.32;9.93;;;6.90;99.90;;;;;;5025218;28;20021;-63
2021/12/13 13:32:49;;;;;;;14.48;9.75;;;7.00;99.90;;;;;;5024922;28;20548;-64
2021/12/13 13:35:17;;;;;;;11.75;10.23;;;7.00;99.90;;;;;;5014655;28;20109;-64
2021/12/13 13:37:43;;;;;;;13.65;10.68;;;7.00;99.90;;;;;;5014962;28;20026;-64
2021/12/13 13:40:25;;;;;;;11.43;8.70;;;7.10;99.90;;;;;;5020962;28;20040;-64